17 mai 2022

Temps Code Temps Temp. Vue Des nuages Vent METAR/SPECI
09:30
V
20 °C 10 km+ - 080°   080° 6 kt METAR LFMK 170730Z AUTO 08006KT 050V140 9999 FEW006 20/17 Q1019 NOSIG
09:00
L
17 °C 10 km+ 300 ft 080°   080° 7 kt METAR LFMK 170700Z AUTO 08007KT 9999 OVC003 17/16 Q1019 BECMG NSC
08:30
L
16 °C 2,7 km - 090°   090° 4 kt METAR LFMK 170630Z AUTO 09004KT 060V150 2700 BR VV/// 16/16 Q1019 BECMG CAVOK
08:00
L
16 °C 700 m - 090°   090° 5 kt METAR LFMK 170600Z AUTO 09005KT 060V130 0750 0700 R09/1000U FG VV/// 16/16 Q1019 BECMG CAVOK
07:30
L
16 °C 900 m - 090°   090° 6 kt METAR LFMK 170530Z AUTO 09006KT 0900 R09/1300U FG VV/// 16/15 Q1019 BECMG CAVOK
07:00
L
15 °C 4,2 km 200 ft 080°   080° 4 kt METAR LFMK 170500Z AUTO 08004KT 4200 BR BKN002 15/15 Q1019 BECMG CAVOK
06:30
I
15 °C 4,8 km - 060°   060° 4 kt METAR LFMK 170430Z AUTO 06004KT 4800 BR NSC 15/14 Q1019 BECMG 9999 NSW
06:00
V
15 °C 8 km - 070°   070° 4 kt METAR LFMK 170400Z AUTO 07004KT 8000 NSC 15/14 Q1019 NOSIG
05:30
V
16 °C 10 km+ - 080°   080° 5 kt METAR LFMK 170330Z AUTO 08005KT 060V120 CAVOK 16/15 Q1019 NOSIG
05:00
V
16 °C 10 km+ - 070°   070° 5 kt METAR LFMK 170300Z AUTO 07005KT CAVOK 16/15 Q1018 NOSIG
04:30
V
17 °C 10 km+ - 090°   090° 3 kt METAR LFMK 170230Z AUTO 09003KT 050V120 CAVOK 17/15 Q1018 NOSIG
04:00
V
17 °C 10 km+ - 100°   100° 3 kt METAR LFMK 170200Z AUTO 10003KT 060V140 CAVOK 17/15 Q1019
03:30
V
16 °C 10 km+ - Var   Var 2 kt METAR LFMK 170130Z AUTO VRB02KT CAVOK 16/14 Q1019
03:00
V
17 °C 10 km+ - 070°   070° 4 kt METAR LFMK 170100Z AUTO 07004KT CAVOK 17/15 Q1019
02:30
V
17 °C 10 km+ - Var   Var 3 kt METAR LFMK 170030Z AUTO VRB03KT CAVOK 17/14 Q1019
02:00
V
17 °C 10 km+ - 070°   070° 3 kt METAR LFMK 170000Z AUTO 07003KT CAVOK 17/14 Q1019
01:30
V
16 °C 10 km+ - 030°   030° 3 kt METAR LFMK 162330Z AUTO 03003KT 350V070 CAVOK 16/13 Q1019
01:00
V
17 °C 10 km+ - Var   Var 1 kt METAR LFMK 162300Z AUTO VRB01KT CAVOK 17/13 Q1019
00:30
V
18 °C 10 km+ - 050°   050° 5 kt METAR LFMK 162230Z AUTO 05005KT CAVOK 18/13 Q1019
00:00
V
19 °C 10 km+ - 090°   090° 5 kt METAR LFMK 162200Z AUTO 09005KT CAVOK 19/13 Q1019

16 mai 2022

Temps Code Temps Temp. Vue Des nuages Vent METAR/SPECI
23:30
V
19 °C 10 km+ - 070°   070° 5 kt METAR LFMK 162130Z AUTO 07005KT CAVOK 19/13 Q1019
23:00
V
20 °C 10 km+ - 080°   080° 6 kt METAR LFMK 162100Z AUTO 08006KT CAVOK 20/13 Q1019
22:30
V
21 °C 10 km+ - 090°   090° 4 kt METAR LFMK 162030Z AUTO 09004KT 060V130 CAVOK 21/14 Q1019
22:00
V
21 °C 10 km+ - 080°   080° 6 kt METAR LFMK 162000Z AUTO 08006KT CAVOK 21/15 Q1019
21:30
V
22 °C 10 km+ - 080°   080° 7 kt METAR LFMK 161930Z AUTO 08007KT CAVOK 22/15 Q1019
21:00
V
23 °C 10 km+ - 080°   080° 8 kt METAR LFMK 161900Z AUTO 08008KT CAVOK 23/16 Q1019
20:30
V
24 °C 10 km+ - 080°   080° 10 kt METAR LFMK 161830Z AUTO 08010KT CAVOK 24/17 Q1018
20:00
V
25 °C 10 km+ - 070°   070° 11 kt METAR LFMK 161800Z AUTO 07011KT CAVOK 25/16 Q1018 NOSIG
19:30
V
26 °C 10 km+ - 070°   070° 10 kt METAR LFMK 161730Z AUTO 07010KT CAVOK 26/17 Q1018 NOSIG
19:00
V
27 °C 10 km+ - 080°   080° 11 kt METAR LFMK 161700Z AUTO 08011KT 050V110 9999 FEW080 27/17 Q1018 NOSIG
18:30
V
27 °C 10 km+ 8.000 ft 060°   060° 5 kt METAR LFMK 161630Z AUTO 06005KT 020V110 9999 BKN080 27/17 Q1018 NOSIG
18:00
V
28 °C 10 km+ - 060°   060° 6 kt METAR LFMK 161600Z AUTO 06006KT 360V100 CAVOK 28/17 Q1018 NOSIG
17:30
V
28 °C 10 km+ - 050°   050° 7 kt METAR LFMK 161530Z AUTO 05007KT 010V090 CAVOK 28/16 Q1018 NOSIG
17:00
V
28 °C 10 km+ - 060°   060° 6 kt METAR LFMK 161500Z AUTO 06006KT 020V120 CAVOK 28/17 Q1018 NOSIG
16:30
V
28 °C 10 km+ - 070°   070° 7 kt METAR LFMK 161430Z AUTO 07007KT 020V100 CAVOK 28/16 Q1018 NOSIG
16:00
V
28 °C 10 km+ - 060°   060° 7 kt METAR LFMK 161400Z AUTO 06007KT 030V090 CAVOK 28/16 Q1018 NOSIG
15:30
V
27 °C 10 km+ - 070°   070° 6 kt METAR LFMK 161330Z AUTO 07006KT 340V120 CAVOK 27/16 Q1018 NOSIG
15:00
V
27 °C 10 km+ - 050°   050° 6 kt METAR LFMK 161300Z AUTO 05006KT 350V090 CAVOK 27/17 Q1019 NOSIG
14:30
V
27 °C 10 km+ - 070°   070° 7 kt METAR LFMK 161230Z AUTO 07007KT 030V150 CAVOK 27/16 Q1019 NOSIG
14:00
V
26 °C 10 km+ - Var   Var 4 kt METAR LFMK 161200Z AUTO VRB04KT CAVOK 26/16 Q1019 NOSIG
13:30
V
26 °C 10 km+ - 060°   060° 5 kt METAR LFMK 161130Z AUTO 06005KT 020V120 CAVOK 26/16 Q1019 NOSIG
13:00
V
25 °C 10 km+ - 070°   070° 5 kt METAR LFMK 161100Z AUTO 07005KT 030V150 CAVOK 25/16 Q1020 NOSIG
12:30
V
25 °C 10 km+ - 090°   090° 5 kt METAR LFMK 161030Z AUTO 09005KT 050V160 CAVOK 25/15 Q1020 NOSIG
12:00
V
24 °C 10 km+ - 130°   130° 3 kt METAR LFMK 161000Z AUTO 13003KT 040V210 CAVOK 24/15 Q1020 NOSIG
11:30
V
23 °C 10 km+ - 090°   090° 6 kt METAR LFMK 160930Z AUTO 09006KT 050V150 CAVOK 23/15 Q1020 NOSIG
11:00
V
23 °C 10 km+ - 080°   080° 6 kt METAR LFMK 160900Z AUTO 08006KT 030V130 CAVOK 23/15 Q1020 NOSIG
10:30
V
22 °C 10 km+ - 090°   090° 5 kt METAR LFMK 160830Z AUTO 09005KT 050V160 9999 SCT025 22/15 Q1020 NOSIG
10:00
V
21 °C 10 km+ - 100°   100° 6 kt METAR LFMK 160800Z AUTO 10006KT 070V140 9999 FEW024 21/15 Q1020 NOSIG
09:30
V
21 °C 10 km+ - 080°   080° 6 kt METAR LFMK 160730Z AUTO 08006KT 050V140 CAVOK 21/15 Q1020 NOSIG
09:00
V
20 °C 10 km+ - Var   Var 2 kt METAR LFMK 160700Z AUTO VRB02KT 9999 SCT027 20/15 Q1020 NOSIG
08:30
V
18 °C 10 km+ - Var   Var 2 kt METAR LFMK 160630Z AUTO VRB02KT 9999 FEW027 18/15 Q1019 NOSIG
08:00
V
16 °C 10 km+ - Var   Var 2 kt METAR LFMK 160600Z AUTO VRB02KT CAVOK 16/14 Q1019 NOSIG
07:30
V
15 °C 10 km+ - Var   000° 0 kt METAR LFMK 160530Z AUTO 00000KT CAVOK 15/14 Q1018 NOSIG
07:00
V
13 °C 10 km+ - Var   000° 0 kt METAR LFMK 160500Z AUTO 00000KT CAVOK 13/12 Q1018 TEMPO BKN014
06:30
V
13 °C 10 km+ - Var   Var 1 kt METAR LFMK 160430Z AUTO VRB01KT CAVOK 13/12 Q1018 TEMPO BKN014
06:00
V
14 °C 10 km+ - Var   Var 1 kt METAR LFMK 160400Z AUTO VRB01KT CAVOK 14/12 Q1018 TEMPO BKN014
05:30
V
15 °C 10 km+ - Var   Var 1 kt METAR LFMK 160330Z AUTO VRB01KT CAVOK 15/13 Q1018 TEMPO BKN014
05:00
V
16 °C 10 km+ 20.000 ft Var   Var 2 kt METAR LFMK 160300Z AUTO VRB02KT 9999 FEW021 BKN200 OVC240 16/14 Q1018 TEMPO BKN014
04:30
V
17 °C 10 km+ - 140°   140° 3 kt METAR LFMK 160230Z AUTO 14003KT 080V200 CAVOK 17/14 Q1017
04:00
V
16 °C 10 km+ 22.000 ft Var   Var 2 kt METAR LFMK 160200Z AUTO VRB02KT 9999 FEW023 SCT190 BKN220 16/14 Q1018
03:30
V
17 °C 10 km+ - Var   Var 3 kt METAR LFMK 160130Z AUTO VRB03KT 9999 FEW021 17/14 Q1018
03:00
V
17 °C 10 km+ 23.000 ft 130°   130° 3 kt METAR LFMK 160100Z AUTO 13003KT 070V190 9999 SCT021 SCT190 BKN230 17/14 Q1017
02:30
V
17 °C 10 km+ - 120°   120° 4 kt METAR LFMK 160030Z AUTO 12004KT 090V170 9999 FEW021 17/14 Q1017
02:00
V
17 °C 10 km+ - 130°   130° 4 kt METAR LFMK 160000Z AUTO 13004KT 050V200 CAVOK 17/14 Q1017
01:30
V
17 °C 10 km+ - 110°   110° 6 kt METAR LFMK 152330Z AUTO 11006KT 060V160 CAVOK 17/13 Q1017
01:00
V
17 °C 10 km+ - 100°   100° 6 kt METAR LFMK 152300Z AUTO 10006KT 060V130 CAVOK 17/13 Q1017
00:30
V
18 °C 10 km+ - 090°   090° 10 kt METAR LFMK 152230Z AUTO 09010KT 070V130 CAVOK 18/13 Q1017
00:00
V
18 °C 10 km+ - 100°   100° 9 kt METAR LFMK 152200Z AUTO 10009KT 070V130 CAVOK 18/13 Q1016

15 mai 2022

Temps Code Temps Temp. Vue Des nuages Vent METAR/SPECI
23:30
V
18 °C 10 km+ - 090°   090° 9 kt METAR LFMK 152130Z AUTO 09009KT 070V130 CAVOK 18/13 Q1016
23:00
V
18 °C 10 km+ - 090°   090° 10 kt METAR LFMK 152100Z AUTO 09010KT 070V140 CAVOK 18/13 Q1016
22:30
V
18 °C 10 km+ - 090°   090° 10 kt METAR LFMK 152030Z AUTO 09010KT CAVOK 18/13 Q1016
22:00
V
19 °C 10 km+ - 100°   100° 9 kt METAR LFMK 152000Z AUTO 10009KT 060V160 CAVOK 19/13 Q1015
21:30
V
19 °C 10 km+ - 100°   100° 10 kt METAR LFMK 151930Z AUTO 10010KT 060V150 CAVOK 19/13 Q1015
21:00
V
19 °C 10 km+ - 100°   100° 12 kt METAR LFMK 151900Z AUTO 10012KT 070V140 CAVOK 19/13 Q1014
20:30
V
20 °C 10 km+ - 090°   090° 14 kt METAR LFMK 151830Z AUTO 09014KT CAVOK 20/13 Q1014
20:00
V
20 °C 10 km+ - 090°   090° 15 kt METAR LFMK 151800Z AUTO 09015KT 070V130 CAVOK 20/13 Q1014 BECMG 09018G30KT
19:30
V
21 °C 10 km+ - 090°   090° 14 kt METAR LFMK 151730Z AUTO 09014KT 070V140 CAVOK 21/13 Q1014 BECMG 09018G30KT
19:00
V
22 °C 10 km+ - 090°   090° 18 30 kt METAR LFMK 151700Z AUTO 09018G30KT CAVOK 22/14 Q1014 NOSIG
18:30
V
22 °C 10 km+ - 090°   090° 18 30 kt METAR LFMK 151630Z AUTO 09018G30KT 060V130 CAVOK 22/14 Q1014 NOSIG
18:00
V
23 °C 10 km+ - 090°   090° 19 30 kt METAR LFMK 151600Z AUTO 09019G30KT CAVOK 23/14 Q1014 NOSIG
17:30
V
22 °C 10 km+ - 090°   090° 19 30 kt METAR LFMK 151530Z AUTO 09019G30KT 060V130 CAVOK 22/14 Q1014 NOSIG
17:00
V
23 °C 10 km+ - 090°   090° 18 kt METAR LFMK 151500Z AUTO 09018KT 060V140 CAVOK 23/14 Q1014 TEMPO FEW060CB BECMG 09018G30KT
16:30
V
24 °C 10 km+ - 090°   090° 16 26 kt METAR LFMK 151430Z AUTO 09016G26KT 070V130 CAVOK 24/15 Q1014 TEMPO FEW060CB
16:00
V
24 °C 10 km+ - 090°   090° 19 30 kt METAR LFMK 151400Z AUTO 09019G30KT CAVOK 24/15 Q1014 TEMPO FEW060CB
15:30
V
24 °C 10 km+ - 090°   090° 18 kt METAR LFMK 151330Z AUTO 09018KT 070V130 CAVOK 24/15 Q1015 TEMPO FEW060CB BECMG 09015G28KT
15:00
V
23 °C 10 km+ - 090°   090° 17 27 kt METAR LFMK 151300Z AUTO 09017G27KT 060V120 9999 //////CB 23/15 Q1015 TEMPO NSC
14:30
V
23 °C 10 km+ - 090°   090° 16 27 kt METAR LFMK 151230Z AUTO 09016G27KT 060V130 9999 ///TCU 23/15 Q1015 TEMPO NSC
14:00
V
24 °C 10 km+ - 090°   090° 20 kt METAR LFMK 151200Z AUTO 09020KT CAVOK 24/15 Q1015 BECMG 09015G28KT
13:30
V
24 °C 10 km+ - 090°   090° 20 kt METAR LFMK 151130Z AUTO 09020KT CAVOK 24/15 Q1015 BECMG 09015G28KT
13:00
V
24 °C 10 km+ - 090°   090° 17 kt METAR LFMK 151100Z AUTO 09017KT 060V130 CAVOK 24/15 Q1015 BECMG 09015G28KT
12:30
V
23 °C 10 km+ - 100°   100° 17 kt METAR LFMK 151030Z AUTO 10017KT 070V130 CAVOK 23/15 Q1016 BECMG 09015G28KT
12:00
V
23 °C 10 km+ - 090°   090° 18 kt METAR LFMK 151000Z AUTO 09018KT CAVOK 23/15 Q1016 BECMG 09015G28KT
11:30
V
22 °C 10 km+ - 090°   090° 14 24 kt METAR LFMK 150930Z AUTO 09014G24KT 060V140 9999 FEW024 22/15 Q1016 NOSIG
11:00
M
21 °C 10 km+ 2.300 ft 080°   080° 19 29 kt METAR LFMK 150900Z AUTO 08019G29KT 9999 BKN023 21/15 Q1016 NOSIG
10:30
M
21 °C 10 km+ 1.900 ft 090°   090° 16 kt METAR LFMK 150830Z AUTO 09016KT 060V120 9999 BKN019 BKN025 21/15 Q1016 BECMG 09015G25KT
10:00
M
20 °C 10 km+ 1.800 ft 090°   090° 14 25 kt METAR LFMK 150800Z AUTO 09014G25KT 9999 BKN018 BKN025 20/15 Q1016 NOSIG
09:30
M
19 °C 10 km+ 1.600 ft 090°   090° 13 kt METAR LFMK 150730Z AUTO 09013KT 070V140 9999 BKN016 OVC023 19/15 Q1016 BECMG 09015G25KT
Données plus anciennes

Télécharge notre application

Un accès facile à toute la météo aéronautique sur ton téléphone portable et ta tablette.
Avec de nombreuses fonctionnalités non disponibles sur le site Web, comme la prise en charge hors ligne et une liste personnelle d'aéroports.